Time;durP1;ratioP1;P1;durP2;ratioP2;P2;SDS_P1;SDS_P2;PMS_P1;PMS_P2;Temp;Humidity;BMP_temperature;BMP_pressure;BME280_temperature;BME280_humidity;BME280_pressure;Samples;Min_cycle;Max_cycle;Signal;HPM_P1;HPM_P2
2023/06/25 00:01:24;;;;;;;7.53;6.70;;;17.20;99.90;;;;;;5094918;28;20177;-69
2023/06/25 00:03:51;;;;;;;6.40;5.90;;;17.10;99.90;;;;;;5094884;28;20249;-70
2023/06/25 00:06:16;;;;;;;6.60;5.70;;;17.00;99.90;;;;;;5094586;28;20181;-69
2023/06/25 00:08:42;;;;;;;7.30;6.60;;;17.00;99.90;;;;;;5076166;28;20600;-67
2023/06/25 00:11:08;;;;;;;6.67;5.90;;;16.90;99.90;;;;;;5093810;28;20181;-69
2023/06/25 00:13:33;;;;;;;9.93;6.33;;;16.90;99.90;;;;;;5095658;28;20654;-70
2023/06/25 00:15:59;;;;;;;7.00;6.40;;;16.90;99.90;;;;;;5094950;28;20170;-71
2023/06/25 00:18:26;;;;;;;11.47;6.50;;;16.90;99.90;;;;;;5095624;28;20172;-67
2023/06/25 00:20:55;;;;;;;9.40;6.70;;;16.90;99.90;;;;;;5094364;28;20638;-67
2023/06/25 00:23:21;;;;;;;6.80;6.20;;;16.90;99.90;;;;;;5068227;28;20825;-67
2023/06/25 00:25:47;;;;;;;6.17;5.57;;;16.90;99.90;;;;;;5095203;28;20446;-68
2023/06/25 00:28:13;;;;;;;6.60;6.00;;;16.80;99.90;;;;;;5095283;28;20219;-67
2023/06/25 00:30:38;;;;;;;7.07;6.37;;;16.80;99.90;;;;;;5092573;28;20170;-70
2023/06/25 00:33:04;;;;;;;7.80;6.00;;;16.80;99.90;;;;;;5077124;28;20484;-67
2023/06/25 00:35:49;;;;;;;6.90;6.20;;;16.80;99.90;;;;;;5095064;28;20180;-67
2023/06/25 00:38:15;;;;;;;6.40;5.80;;;16.80;99.90;;;;;;5077094;28;20193;-67
2023/06/25 00:40:41;;;;;;;6.83;6.13;;;16.70;99.90;;;;;;5075628;28;20962;-70
2023/06/25 00:43:06;;;;;;;9.00;8.10;;;16.70;99.90;;;;;;5094296;28;20211;-69
2023/06/25 00:45:34;;;;;;;8.90;7.00;;;16.70;1.00;;;;;;5094197;28;20191;-70
2023/06/25 00:48:00;;;;;;;6.70;6.10;;;16.60;1.00;;;;;;5093750;28;20566;-69
2023/06/25 00:50:26;;;;;;;7.33;6.30;;;16.60;1.00;;;;;;5094221;28;20426;-68
2023/06/25 00:52:52;;;;;;;9.73;6.83;;;16.50;1.00;;;;;;5094848;28;20384;-67
2023/06/25 00:55:19;;;;;;;6.60;6.00;;;16.40;1.00;;;;;;5094713;28;20486;-67
2023/06/25 00:57:45;;;;;;;6.20;5.60;;;16.40;1.00;;;;;;5093900;28;20439;-72
2023/06/25 01:00:15;;;;;;;8.20;6.23;;;16.40;1.00;;;;;;5093477;28;20411;-69
2023/06/25 01:03:17;;;;;;;7.17;6.50;;;16.50;1.00;;;;;;5076666;28;20265;-67
2023/06/25 01:05:49;;;;;;;7.30;6.60;;;16.40;1.00;;;;;;5093956;28;20430;-70
2023/06/25 01:08:16;;;;;;;7.20;6.10;;;16.40;1.00;;;;;;5094112;28;20439;-70
2023/06/25 01:10:43;;;;;;;7.00;6.40;;;16.40;1.00;;;;;;5093617;28;20445;-67
2023/06/25 01:13:09;;;;;;;8.80;6.13;;;16.40;1.00;;;;;;5092518;28;20542;-70
2023/06/25 01:15:35;;;;;;;7.10;6.40;;;16.40;1.00;;;;;;5094066;28;20399;-70
2023/06/25 01:18:01;;;;;;;7.70;6.60;;;16.40;1.00;;;;;;5093508;28;21000;-68
2023/06/25 01:20:28;;;;;;;9.03;6.73;;;16.30;1.00;;;;;;5093180;28;20392;-69
2023/06/25 01:22:57;;;;;;;6.87;6.17;;;16.30;1.00;;;;;;5094191;28;20756;-67
2023/06/25 01:25:24;;;;;;;8.07;5.83;;;16.30;1.00;;;;;;5092215;28;20178;-70
2023/06/25 01:27:50;;;;;;;6.70;6.00;;;16.30;1.00;;;;;;5057925;28;20435;-70
2023/06/25 01:30:17;;;;;;;7.70;6.87;;;16.30;1.00;;;;;;5093233;28;20764;-66
2023/06/25 01:32:44;;;;;;;7.27;6.57;;;16.30;1.00;;;;;;5093961;28;20193;-67
2023/06/25 01:35:12;;;;;;;9.30;6.83;;;16.20;1.00;;;;;;5093468;28;20830;-67
2023/06/25 01:37:37;;;;;;;7.33;6.73;;;16.00;1.00;;;;;;5094087;28;20399;-67
2023/06/25 01:40:05;;;;;;;8.63;6.93;;;16.00;1.00;;;;;;5093707;28;20741;-72
2023/06/25 01:42:31;;;;;;;7.23;6.53;;;16.00;1.00;;;;;;5093165;28;20239;-67
2023/06/25 01:44:57;;;;;;;8.37;7.57;;;16.00;1.00;;;;;;5092358;28;20956;-70
2023/06/25 01:47:23;;;;;;;6.17;5.63;;;16.00;1.00;;;;;;5075637;28;20174;-67
2023/06/25 01:49:48;;;;;;;7.13;6.20;;;16.00;1.00;;;;;;5075563;28;20258;-71
2023/06/25 01:52:14;;;;;;;8.50;7.10;;;15.90;1.00;;;;;;5092540;28;20174;-70
2023/06/25 01:54:40;;;;;;;8.87;7.87;;;15.90;1.00;;;;;;5093518;28;20185;-66
2023/06/25 01:57:05;;;;;;;8.67;7.77;;;15.90;1.00;;;;;;5093151;28;20173;-69
2023/06/25 01:59:34;;;;;;;9.23;7.30;;;15.90;1.00;;;;;;5091865;28;20641;-68
2023/06/25 02:02:01;;;;;;;7.37;6.73;;;15.90;1.00;;;;;;5071966;28;20400;-67
2023/06/25 02:04:27;;;;;;;7.53;6.83;;;15.90;1.00;;;;;;5073304;28;20782;-71
2023/06/25 02:06:53;;;;;;;8.23;7.07;;;15.90;1.00;;;;;;5073469;28;20841;-67
2023/06/25 02:09:18;;;;;;;8.53;7.53;;;15.90;1.00;;;;;;5072804;28;20539;-67
2023/06/25 02:11:46;;;;;;;8.40;7.07;;;15.90;1.00;;;;;;5089257;28;20519;-67
2023/06/25 02:14:11;;;;;;;8.20;7.40;;;15.80;1.00;;;;;;5093429;28;20665;-67
2023/06/25 02:16:37;;;;;;;7.03;6.33;;;15.80;1.00;;;;;;5093715;28;20406;-69
2023/06/25 02:19:03;;;;;;;9.00;7.50;;;15.80;1.00;;;;;;5093135;28;20248;-71
2023/06/25 02:21:29;;;;;;;6.73;6.23;;;15.80;1.00;;;;;;5074357;28;20679;-67
2023/06/25 02:23:55;;;;;;;6.53;5.93;;;15.80;1.00;;;;;;5093058;28;20204;-69
2023/06/25 02:26:20;;;;;;;7.40;6.57;;;15.80;1.00;;;;;;5089927;28;20187;-70
2023/06/25 02:28:46;;;;;;;8.30;7.20;;;15.80;1.00;;;;;;5093405;28;20200;-68
2023/06/25 02:31:12;;;;;;;7.47;6.70;;;15.70;1.00;;;;;;5091825;28;20181;-69
2023/06/25 02:33:38;;;;;;;7.67;6.63;;;15.80;1.00;;;;;;5096360;28;20186;-70
2023/06/25 02:36:04;;;;;;;8.77;6.93;;;15.70;1.00;;;;;;5097561;28;20614;-70
2023/06/25 02:38:29;;;;;;;7.53;6.83;;;15.70;1.00;;;;;;5078315;28;20516;-67
2023/06/25 02:40:55;;;;;;;7.10;6.40;;;15.70;1.00;;;;;;5096497;28;20174;-70
2023/06/25 02:43:21;;;;;;;7.47;6.70;;;15.70;1.00;;;;;;5096514;28;20196;-70
2023/06/25 02:45:46;;;;;;;8.33;7.13;;;15.70;1.00;;;;;;5097161;28;20173;-69
2023/06/25 02:48:12;;;;;;;7.40;6.70;;;15.70;1.00;;;;;;5097043;28;20201;-69
2023/06/25 02:50:38;;;;;;;7.67;6.97;;;15.70;1.00;;;;;;5096194;28;20165;-67
2023/06/25 02:53:04;;;;;;;11.93;6.37;;;15.70;1.00;;;;;;5096357;28;20202;-67
2023/06/25 02:55:29;;;;;;;7.30;6.63;;;15.70;1.00;;;;;;5096839;28;20166;-67
2023/06/25 02:57:56;;;;;;;8.57;7.70;;;15.60;1.00;;;;;;5078642;28;20165;-67
2023/06/25 03:00:22;;;;;;;7.23;6.37;;;15.60;1.00;;;;;;5095599;28;20161;-70
2023/06/25 03:02:48;;;;;;;8.80;6.57;;;15.60;1.00;;;;;;5096515;28;20424;-69
2023/06/25 03:05:13;;;;;;;11.70;7.30;;;15.60;1.00;;;;;;5097042;28;20169;-67
2023/06/25 03:07:52;;;;;;;6.53;5.90;;;15.60;1.00;;;;;;5095173;28;20205;-69
2023/06/25 03:10:19;;;;;;;7.70;6.87;;;15.60;1.00;;;;;;5095052;28;20541;-69
2023/06/25 03:12:44;;;;;;;8.40;7.17;;;15.60;1.00;;;;;;5096708;28;20486;-70
2023/06/25 03:15:10;;;;;;;7.77;6.97;;;15.60;1.00;;;;;;5096493;28;20478;-69
2023/06/25 03:17:36;;;;;;;7.90;7.10;;;15.50;1.00;;;;;;5085646;28;20171;-70
2023/06/25 03:20:03;;;;;;;8.50;7.07;;;15.50;1.00;;;;;;5075500;28;20252;-67
2023/06/25 03:22:29;;;;;;;8.83;7.10;;;15.50;1.00;;;;;;5083781;28;20177;-70
2023/06/25 03:24:55;;;;;;;7.30;6.70;;;15.50;1.00;;;;;;5078362;28;20419;-67
2023/06/25 03:27:20;;;;;;;9.07;7.27;;;15.50;1.00;;;;;;5096593;28;20166;-70
2023/06/25 03:29:46;;;;;;;9.27;7.20;;;15.60;1.00;;;;;;5096446;28;20209;-68
2023/06/25 03:32:12;;;;;;;7.20;6.50;;;15.60;1.00;;;;;;5077719;28;20170;-66
2023/06/25 03:34:37;;;;;;;8.03;6.90;;;15.60;1.00;;;;;;5095953;28;20231;-71
2023/06/25 03:37:03;;;;;;;8.13;6.80;;;15.60;1.00;;;;;;5093691;28;20174;-67
2023/06/25 03:39:29;;;;;;;6.73;6.13;;;15.60;1.00;;;;;;5096547;28;20173;-67
2023/06/25 03:41:55;;;;;;;7.27;6.47;;;15.60;1.00;;;;;;5077554;28;20403;-70
2023/06/25 03:44:20;;;;;;;7.53;6.77;;;15.60;1.00;;;;;;5096056;28;20186;-67
2023/06/25 03:46:46;;;;;;;7.80;7.00;;;15.60;1.00;;;;;;5077549;28;20222;-68
2023/06/25 03:49:12;;;;;;;6.50;5.90;;;15.60;1.00;;;;;;5096018;28;20717;-67
2023/06/25 03:51:37;;;;;;;6.63;5.90;;;15.60;1.00;;;;;;5074369;28;20185;-70
2023/06/25 03:54:03;;;;;;;7.13;5.93;;;15.60;1.00;;;;;;5076368;28;20197;-70
2023/06/25 03:56:29;;;;;;;6.60;5.83;;;15.70;1.00;;;;;;5095560;28;20168;-69
2023/06/25 03:58:54;;;;;;;6.47;5.87;;;15.70;1.00;;;;;;5095950;28;20173;-70
2023/06/25 04:01:20;;;;;;;6.40;5.80;;;15.70;1.00;;;;;;5076666;28;20507;-67
2023/06/25 04:03:46;;;;;;;7.63;6.33;;;15.70;1.00;;;;;;5077966;28;20224;-67
2023/06/25 04:06:11;;;;;;;6.30;5.70;;;15.80;1.00;;;;;;5093731;28;20186;-69
2023/06/25 04:08:40;;;;;;;7.47;6.10;;;15.80;1.00;;;;;;5095586;28;20204;-67
2023/06/25 04:11:06;;;;;;;5.93;5.40;;;15.80;1.00;;;;;;5093931;28;20224;-67
2023/06/25 04:13:32;;;;;;;6.97;5.43;;;15.90;1.00;;;;;;5077333;28;20497;-67
2023/06/25 04:15:57;;;;;;;8.43;6.00;;;15.90;1.00;;;;;;5095541;28;20169;-70
2023/06/25 04:18:23;;;;;;;6.43;5.83;;;15.90;1.00;;;;;;5095555;28;20622;-69
2023/06/25 04:20:49;;;;;;;6.97;5.60;;;15.90;1.00;;;;;;5093373;28;20188;-67
2023/06/25 04:23:14;;;;;;;6.77;6.10;;;16.00;1.00;;;;;;5095314;28;20557;-67
2023/06/25 04:25:43;;;;;;;6.87;6.27;;;16.00;1.00;;;;;;5095264;28;20609;-69
2023/06/25 04:28:15;;;;;;;9.17;7.00;;;16.00;1.00;;;;;;5095461;28;20684;-70
2023/06/25 04:30:41;;;;;;;6.27;5.77;;;16.10;1.00;;;;;;5093659;28;20391;-70
2023/06/25 04:33:07;;;;;;;7.53;5.27;;;16.10;1.00;;;;;;5093647;28;20447;-67
2023/06/25 04:35:33;;;;;;;7.23;6.53;;;16.20;1.00;;;;;;5094464;28;20461;-67
2023/06/25 04:37:59;;;;;;;6.73;6.03;;;16.20;1.00;;;;;;5094659;28;20170;-70
2023/06/25 04:40:25;;;;;;;9.43;7.10;;;16.30;1.00;;;;;;5094274;28;21204;-67
2023/06/25 04:42:51;;;;;;;7.30;6.60;;;16.30;1.00;;;;;;5094977;28;20166;-67
2023/06/25 04:45:17;;;;;;;8.73;7.10;;;16.40;1.00;;;;;;5076736;28;20534;-67
2023/06/25 04:47:42;;;;;;;6.97;6.27;;;16.40;1.00;;;;;;5093262;28;20182;-70
2023/06/25 04:50:09;;;;;;;8.43;7.13;;;16.50;1.00;;;;;;5093323;28;20919;-71
2023/06/25 04:52:34;;;;;;;7.97;7.07;;;16.50;1.00;;;;;;5094775;28;20162;-70
2023/06/25 04:55:00;;;;;;;8.17;7.13;;;16.60;1.00;;;;;;5076074;28;20482;-70
2023/06/25 04:57:26;;;;;;;8.03;7.27;;;16.60;1.00;;;;;;5094932;28;20173;-67
2023/06/25 04:59:51;;;;;;;10.00;6.60;;;16.70;1.00;;;;;;5091403;28;20629;-68
2023/06/25 05:02:17;;;;;;;10.23;8.50;;;16.80;1.00;;;;;;5072659;28;20170;-69
2023/06/25 05:04:43;;;;;;;9.63;7.53;;;16.80;1.00;;;;;;5074266;28;20222;-67
2023/06/25 05:07:09;;;;;;;8.77;7.60;;;16.90;1.00;;;;;;5073866;28;20154;-67
2023/06/25 05:09:35;;;;;;;9.33;8.43;;;17.00;1.00;;;;;;5073658;28;20967;-70
2023/06/25 05:12:01;;;;;;;9.73;8.83;;;17.00;1.00;;;;;;5063776;28;20244;-68
2023/06/25 05:14:27;;;;;;;8.97;8.07;;;17.10;1.00;;;;;;5086898;28;20197;-70
2023/06/25 05:16:53;;;;;;;11.20;9.13;;;17.10;7.60;;;;;;5076238;28;20652;-70
2023/06/25 05:19:19;;;;;;;20.10;12.53;;;17.20;14.80;;;;;;5094224;28;20400;-67
2023/06/25 05:21:44;;;;;;;17.30;12.20;;;17.30;23.40;;;;;;5092691;28;20252;-67
2023/06/25 05:24:11;;;;;;;14.17;11.67;;;17.40;45.00;;;;;;5094293;28;20190;-67
2023/06/25 05:26:36;;;;;;;17.60;11.83;;;17.60;57.10;;;;;;5075373;28;20223;-70
2023/06/25 05:29:02;;;;;;;16.03;11.53;;;17.80;61.60;;;;;;5093300;28;20451;-69
2023/06/25 05:31:29;;;;;;;14.43;11.27;;;17.90;58.80;;;;;;5093003;28;20158;-69
2023/06/25 05:33:54;;;;;;;17.80;10.73;;;18.00;58.60;;;;;;5094084;28;20213;-67
2023/06/25 05:36:21;;;;;;;14.70;11.17;;;18.10;56.90;;;;;;5094192;28;20726;-67
2023/06/25 05:38:47;;;;;;;14.30;10.10;;;18.30;29.40;;;;;;5094048;28;20527;-68
2023/06/25 05:41:13;;;;;;;11.40;8.90;;;18.40;7.50;;;;;;5091743;28;20435;-65
2023/06/25 05:43:39;;;;;;;10.47;8.80;;;18.60;1.00;;;;;;5093838;28;20415;-67
2023/06/25 05:46:05;;;;;;;11.87;10.03;;;18.70;1.00;;;;;;5074889;28;20418;-66
2023/06/25 05:48:31;;;;;;;11.20;9.03;;;18.90;1.00;;;;;;5093705;28;20447;-65
2023/06/25 05:50:56;;;;;;;8.43;7.60;;;19.10;1.00;;;;;;5092799;28;20445;-66
2023/06/25 05:53:24;;;;;;;10.07;7.93;;;19.30;1.00;;;;;;5093790;28;20920;-64
2023/06/25 05:55:50;;;;;;;11.57;7.50;;;19.40;1.00;;;;;;5093095;28;20226;-66
2023/06/25 05:58:16;;;;;;;9.30;8.37;;;19.40;1.00;;;;;;5087672;28;20436;-65
2023/06/25 06:00:42;;;;;;;11.43;7.43;;;19.50;1.00;;;;;;5073076;28;20416;-66
2023/06/25 06:03:07;;;;;;;8.60;7.50;;;19.60;1.00;;;;;;5092361;28;20195;-65
2023/06/25 06:05:33;;;;;;;15.63;7.27;;;19.70;1.00;;;;;;5092845;28;20537;-64
2023/06/25 06:07:59;;;;;;;8.60;7.70;;;19.80;1.00;;;;;;5074680;28;20192;-64
2023/06/25 06:10:24;;;;;;;7.30;6.60;;;19.90;1.00;;;;;;5092585;28;20181;-64
2023/06/25 06:12:50;;;;;;;9.47;7.30;;;20.00;1.00;;;;;;5093501;28;20237;-65
2023/06/25 06:15:16;;;;;;;7.40;6.70;;;20.00;1.00;;;;;;5074863;28;20216;-65
2023/06/25 06:17:42;;;;;;;8.50;7.27;;;20.10;1.00;;;;;;5092838;28;20165;-65
2023/06/25 06:20:09;;;;;;;8.70;7.80;;;20.10;1.00;;;;;;5092512;28;20404;-67
2023/06/25 06:22:35;;;;;;;8.37;7.53;;;20.20;1.00;;;;;;5092814;28;20226;-64
2023/06/25 06:25:01;;;;;;;9.07;6.93;;;20.20;1.00;;;;;;5092996;28;20824;-64
2023/06/25 06:27:27;;;;;;;7.10;6.40;;;20.30;1.00;;;;;;5093188;28;20173;-66
2023/06/25 06:29:52;;;;;;;6.53;5.93;;;20.40;1.00;;;;;;5073070;28;20284;-65
2023/06/25 06:32:18;;;;;;;5.70;5.00;;;20.50;1.00;;;;;;5081504;28;20174;-65
2023/06/25 06:34:43;;;;;;;4.80;4.43;;;20.60;1.00;;;;;;5093049;28;20189;-67
2023/06/25 06:37:11;;;;;;;8.07;6.07;;;20.60;1.00;;;;;;5093038;28;20630;-65
2023/06/25 06:39:36;;;;;;;6.20;5.67;;;20.60;99.90;;;;;;5093185;28;20173;-65
2023/06/25 06:42:02;;;;;;;6.53;5.83;;;20.70;99.90;;;;;;5073712;28;20892;-66
2023/06/25 06:44:28;;;;;;;8.13;7.00;;;20.80;99.90;;;;;;5092462;28;20290;-67
2023/06/25 06:46:54;;;;;;;6.93;6.20;;;20.80;99.90;;;;;;5090375;28;20189;-65
2023/06/25 06:49:19;;;;;;;7.77;6.97;;;20.90;99.90;;;;;;5092122;28;20260;-65
2023/06/25 06:51:45;;;;;;;8.57;5.30;;;20.90;99.90;;;;;;5091310;28;20173;-65
2023/06/25 06:54:11;;;;;;;9.03;6.03;;;21.00;99.90;;;;;;5091446;28;20196;-66
2023/06/25 06:56:38;;;;;;;7.03;5.83;;;21.00;99.90;;;;;;5073194;28;20178;-67
2023/06/25 06:59:04;;;;;;;6.47;5.97;;;21.10;99.90;;;;;;5072641;28;20224;-65
2023/06/25 07:01:30;;;;;;;6.50;5.80;;;21.20;99.90;;;;;;5072080;28;20393;-65
2023/06/25 07:03:56;;;;;;;6.07;5.47;;;21.30;99.90;;;;;;5054899;28;20247;-65
2023/06/25 07:06:22;;;;;;;6.20;5.13;;;21.40;99.90;;;;;;5072611;28;20579;-69
2023/06/25 07:08:48;;;;;;;5.17;4.70;;;21.40;99.90;;;;;;5079626;28;20501;-68
2023/06/25 07:11:16;;;;;;;6.50;5.67;;;21.40;99.90;;;;;;5089968;28;20547;-71
2023/06/25 07:13:43;;;;;;;6.93;5.97;;;21.50;99.90;;;;;;5090993;28;20197;-70
2023/06/25 07:16:09;;;;;;;5.37;4.83;;;21.60;99.90;;;;;;5092305;28;20510;-67
2023/06/25 07:18:35;;;;;;;7.17;5.83;;;21.60;99.90;;;;;;5093770;28;20499;-70
2023/06/25 07:21:01;;;;;;;9.30;8.20;;;21.70;99.90;;;;;;5090246;28;20423;-69
2023/06/25 07:23:26;;;;;;;6.53;5.37;;;21.80;99.90;;;;;;5078496;28;20689;-70
2023/06/25 07:25:52;;;;;;;6.80;5.50;;;21.80;99.90;;;;;;5096342;28;20173;-69
2023/06/25 07:28:18;;;;;;;5.73;5.00;;;21.90;99.90;;;;;;5089324;28;20297;-70
2023/06/25 07:30:43;;;;;;;5.67;5.03;;;21.90;99.90;;;;;;5075411;28;20171;-67
2023/06/25 07:33:09;;;;;;;12.80;5.00;;;21.90;99.90;;;;;;5075488;28;20186;-67
2023/06/25 07:35:35;;;;;;;7.23;4.80;;;22.00;99.90;;;;;;5094178;28;20188;-67
2023/06/25 07:38:00;;;;;;;6.57;4.93;;;22.00;99.90;;;;;;5078500;28;20207;-67
2023/06/25 07:40:26;;;;;;;5.50;4.90;;;22.10;99.90;;;;;;5077434;28;20173;-70
2023/06/25 07:42:52;;;;;;;5.93;5.33;;;22.20;99.90;;;;;;5096429;28;20166;-68
2023/06/25 07:45:18;;;;;;;5.20;4.70;;;22.20;99.90;;;;;;5077985;28;20216;-69
2023/06/25 07:47:44;;;;;;;4.60;4.20;;;22.30;99.90;;;;;;5095956;28;20909;-70
2023/06/25 07:50:10;;;;;;;7.77;5.03;;;22.30;99.90;;;;;;5093851;28;20201;-69
2023/06/25 07:52:35;;;;;;;5.17;4.67;;;22.50;99.90;;;;;;5096027;28;20908;-69
2023/06/25 07:55:02;;;;;;;4.53;4.13;;;22.60;99.90;;;;;;5095825;28;20252;-67
2023/06/25 07:57:28;;;;;;;6.27;4.70;;;22.60;99.90;;;;;;5095924;28;20169;-67
2023/06/25 07:59:53;;;;;;;3.50;3.20;;;22.70;99.90;;;;;;5095819;28;20395;-70
2023/06/25 08:02:20;;;;;;;3.90;3.50;;;22.80;99.90;;;;;;5076131;28;20260;-68
2023/06/25 08:04:45;;;;;;;3.63;3.10;;;22.90;99.90;;;;;;5095486;28;20658;-69
2023/06/25 08:07:11;;;;;;;4.33;2.90;;;23.00;99.90;;;;;;5095323;28;20402;-68
2023/06/25 08:09:37;;;;;;;3.90;3.60;;;23.00;99.90;;;;;;5077757;28;20200;-69
2023/06/25 08:12:03;;;;;;;3.70;3.47;;;23.00;99.90;;;;;;5094631;28;20184;-68
2023/06/25 08:14:28;;;;;;;5.57;3.77;;;23.10;99.90;;;;;;5077628;28;20189;-69
2023/06/25 08:16:54;;;;;;;3.90;3.60;;;23.20;99.90;;;;;;5073541;28;20951;-67
2023/06/25 08:19:20;;;;;;;4.70;3.80;;;23.30;99.90;;;;;;5057630;28;20178;-68
2023/06/25 08:21:45;;;;;;;4.50;3.60;;;23.40;99.90;;;;;;5073974;28;20235;-70
2023/06/25 08:24:11;;;;;;;3.53;3.23;;;23.50;99.90;;;;;;5056645;28;20589;-68
2023/06/25 08:26:37;;;;;;;3.90;3.57;;;23.50;99.90;;;;;;5075159;28;20725;-67
2023/06/25 08:29:04;;;;;;;3.10;2.90;;;23.60;99.90;;;;;;5081360;28;20197;-67
2023/06/25 08:31:29;;;;;;;3.70;3.40;;;23.70;99.90;;;;;;5092593;28;20169;-67
2023/06/25 08:33:55;;;;;;;3.80;3.07;;;23.80;99.90;;;;;;5094747;28;20412;-68
2023/06/25 08:36:21;;;;;;;5.40;3.93;;;23.80;99.90;;;;;;5095117;28;20215;-69
2023/06/25 08:38:46;;;;;;;4.43;3.00;;;23.90;99.90;;;;;;5076280;28;20173;-69
2023/06/25 08:41:12;;;;;;;3.40;3.10;;;23.90;99.90;;;;;;5093260;28;20234;-68
2023/06/25 08:43:38;;;;;;;5.03;3.93;;;24.00;99.90;;;;;;5095074;28;20186;-67
2023/06/25 08:46:04;;;;;;;4.80;3.90;;;24.10;99.90;;;;;;5095166;28;20173;-68
2023/06/25 08:48:33;;;;;;;3.73;3.43;;;24.10;99.90;;;;;;5094187;28;20694;-67
2023/06/25 08:51:06;;;;;;;3.87;3.00;;;24.20;99.90;;;;;;5093593;28;20403;-67
2023/06/25 08:53:32;;;;;;;3.93;3.63;;;24.20;99.90;;;;;;5094964;28;20419;-68
2023/06/25 08:56:00;;;;;;;3.07;2.87;;;24.40;99.90;;;;;;5094786;28;20873;-67
2023/06/25 08:58:26;;;;;;;5.27;4.87;;;24.50;99.90;;;;;;5094301;28;20252;-69
2023/06/25 09:00:52;;;;;;;3.60;3.20;;;24.60;99.90;;;;;;5092102;28;20402;-69
2023/06/25 09:03:18;;;;;;;8.03;4.00;;;24.80;99.90;;;;;;5076583;28;20895;-68
2023/06/25 09:05:55;;;;;;;4.77;3.60;;;24.80;99.90;;;;;;5094760;28;20169;-70
2023/06/25 09:08:26;;;;;;;3.60;3.30;;;24.90;99.90;;;;;;5094585;28;20446;-67
2023/06/25 09:10:56;;;;;;;3.90;3.60;;;25.10;99.90;;;;;;5093337;28;20469;-68
2023/06/25 09:13:26;;;;;;;3.67;3.30;;;25.40;99.90;;;;;;5076133;28;20431;-70
2023/06/25 09:15:59;;;;;;;6.07;3.53;;;25.50;99.90;;;;;;5092317;28;20431;-67
2023/06/25 09:18:25;;;;;;;3.63;3.33;;;25.70;99.90;;;;;;5089818;28;20453;-68
2023/06/25 09:20:51;;;;;;;5.07;3.27;;;25.80;99.90;;;;;;5075108;28;20404;-67
2023/06/25 09:23:23;;;;;;;6.50;3.80;;;26.00;99.90;;;;;;5094168;28;20197;-69
2023/06/25 09:25:50;;;;;;;4.50;3.47;;;26.10;99.90;;;;;;5076273;28;20657;-67
2023/06/25 09:28:16;;;;;;;3.80;3.50;;;26.20;99.90;;;;;;5074204;28;20448;-68
2023/06/25 09:30:43;;;;;;;4.20;3.90;;;26.50;99.90;;;;;;5086794;28;20928;-67
2023/06/25 09:33:11;;;;;;;3.70;3.33;;;26.60;99.90;;;;;;5093568;28;20426;-70
2023/06/25 09:35:36;;;;;;;3.60;3.30;;;26.50;99.90;;;;;;5093610;28;20943;-67
2023/06/25 09:38:02;;;;;;;4.30;3.90;;;26.20;99.90;;;;;;5088679;28;20459;-69
2023/06/25 09:40:28;;;;;;;7.10;3.67;;;25.90;99.90;;;;;;5072880;28;20647;-70
2023/06/25 09:42:56;;;;;;;3.50;3.20;;;25.90;99.90;;;;;;5073518;28;20396;-68
2023/06/25 09:45:23;;;;;;;3.67;3.37;;;26.20;99.90;;;;;;5092628;28;20182;-67
2023/06/25 09:47:50;;;;;;;4.10;3.80;;;26.60;99.90;;;;;;5093806;28;20387;-72
2023/06/25 09:50:38;;;;;;;4.70;3.63;;;26.70;99.90;;;;;;5074694;28;21044;-71
2023/06/25 09:53:07;;;;;;;4.13;3.80;;;27.20;99.90;;;;;;5093263;28;20490;-72
2023/06/25 09:55:36;;;;;;;4.13;3.73;;;27.80;99.90;;;;;;5093311;28;20391;-72
2023/06/25 09:58:02;;;;;;;2.70;2.40;;;28.40;99.90;;;;;;5091784;28;20434;-69
2023/06/25 10:00:29;;;;;;;4.50;3.30;;;28.90;99.90;;;;;;5092213;28;20423;-71
2023/06/25 10:02:55;;;;;;;3.87;3.40;;;29.50;99.90;;;;;;5093808;28;20387;-70
2023/06/25 10:05:21;;;;;;;3.50;3.20;;;30.10;99.90;;;;;;5092007;28;20439;-68
2023/06/25 10:07:47;;;;;;;3.90;3.60;;;30.40;99.90;;;;;;5093472;28;20515;-68
2023/06/25 10:10:39;;;;;;;3.50;3.20;;;30.40;99.90;;;;;;5092648;28;20451;-67
2023/06/25 10:13:05;;;;;;;3.73;3.43;;;30.10;99.90;;;;;;5088917;28;21013;-72
2023/06/25 10:15:34;;;;;;;3.93;3.23;;;29.80;99.90;;;;;;5093064;28;20424;-69
2023/06/25 10:18:05;;;;;;;3.77;3.40;;;29.40;99.90;;;;;;5093458;28;20411;-70
2023/06/25 10:20:35;;;;;;;4.17;3.77;;;29.20;99.90;;;;;;5091005;28;20424;-72
2023/06/25 10:23:05;;;;;;;3.60;3.27;;;28.90;99.90;;;;;;5093202;28;20395;-70
2023/06/25 10:25:30;;;;;;;4.47;4.07;;;28.40;99.90;;;;;;5093073;28;20403;-68
2023/06/25 10:28:05;;;;;;;5.00;3.70;;;28.00;99.90;;;;;;5075136;28;20408;-71
2023/06/25 10:30:46;;;;;;;5.30;3.50;;;27.80;99.90;;;;;;5073879;28;20176;-69
2023/06/25 10:33:18;;;;;;;3.83;3.43;;;27.50;99.90;;;;;;5092575;28;20811;-70
2023/06/25 10:35:47;;;;;;;4.20;3.77;;;27.40;99.90;;;;;;5091974;28;20480;-68
2023/06/25 10:38:13;;;;;;;3.63;3.33;;;27.70;99.90;;;;;;5092823;28;20824;-70
2023/06/25 10:40:40;;;;;;;4.03;3.63;;;27.80;99.90;;;;;;5092517;28;20462;-68
2023/06/25 10:43:06;;;;;;;5.37;3.63;;;27.60;99.90;;;;;;5093405;28;20182;-68
2023/06/25 10:45:33;;;;;;;3.97;3.20;;;27.60;99.90;;;;;;5093051;28;20403;-69
2023/06/25 10:48:08;;;;;;;3.30;3.00;;;28.00;99.90;;;;;;5092231;28;20923;-70
2023/06/25 10:50:35;;;;;;;4.47;3.37;;;28.50;99.90;;;;;;5091861;28;20759;-70
2023/06/25 10:53:02;;;;;;;4.20;3.70;;;29.20;99.90;;;;;;5093271;28;20490;-72
2023/06/25 10:55:28;;;;;;;3.70;3.40;;;29.80;99.90;;;;;;5096551;28;20987;-72
2023/06/25 10:57:54;;;;;;;4.30;3.37;;;30.20;99.90;;;;;;5079053;28;20411;-70
2023/06/25 11:00:22;;;;;;;3.70;3.40;;;30.00;99.90;;;;;;5096328;28;20166;-70
2023/06/25 11:02:52;;;;;;;3.50;3.20;;;29.50;99.90;;;;;;5097124;28;20918;-70
2023/06/25 11:05:19;;;;;;;3.63;3.43;;;29.30;99.90;;;;;;5095519;28;20506;-71
2023/06/25 11:07:45;;;;;;;4.73;3.50;;;29.60;99.90;;;;;;5096457;28;20438;-70
2023/06/25 11:10:13;;;;;;;3.87;3.57;;;30.00;99.90;;;;;;5077205;28;20475;-68
2023/06/25 11:12:38;;;;;;;3.93;3.53;;;30.40;99.90;;;;;;5096914;28;20194;-71
2023/06/25 11:15:05;;;;;;;3.50;3.20;;;30.90;99.90;;;;;;5096631;28;20447;-70
2023/06/25 11:17:30;;;;;;;3.70;3.40;;;31.30;99.90;;;;;;5096896;28;20211;-68
2023/06/25 11:19:57;;;;;;;4.83;3.97;;;31.40;99.90;;;;;;5090407;28;20430;-70
2023/06/25 11:22:23;;;;;;;3.67;3.37;;;31.50;99.90;;;;;;5075546;28;20198;-68
2023/06/25 11:24:50;;;;;;;5.30;3.93;;;31.50;99.90;;;;;;5075947;28;20420;-69
2023/06/25 11:27:37;;;;;;;3.47;3.17;;;31.90;99.90;;;;;;5075969;28;20181;-70
2023/06/25 11:30:04;;;;;;;3.90;3.43;;;31.60;99.90;;;;;;5075915;28;20454;-70
2023/06/25 11:32:30;;;;;;;4.40;4.00;;;31.40;99.90;;;;;;5082979;28;20983;-68
2023/06/25 11:34:56;;;;;;;3.67;3.37;;;31.60;99.90;;;;;;5096579;28;20472;-68
2023/06/25 11:37:23;;;;;;;3.40;3.20;;;31.80;99.90;;;;;;5096386;28;20798;-68
2023/06/25 11:39:50;;;;;;;3.77;3.43;;;31.90;99.90;;;;;;5096141;28;20400;-72
2023/06/25 11:42:24;;;;;;;7.50;4.30;;;31.60;99.90;;;;;;5086937;28;20443;-68
2023/06/25 11:45:04;;;;;;;5.10;4.53;;;31.70;99.90;;;;;;5095803;28;20424;-70
2023/06/25 11:47:31;;;;;;;4.37;3.63;;;31.30;99.90;;;;;;5096016;28;20407;-69
2023/06/25 11:49:58;;;;;;;3.63;3.33;;;30.70;99.90;;;;;;5077518;28;20455;-68
2023/06/25 11:52:24;;;;;;;4.80;4.40;;;30.60;99.90;;;;;;5095463;28;20442;-70
2023/06/25 11:54:50;;;;;;;4.47;4.07;;;30.80;99.90;;;;;;5095222;28;20449;-69
2023/06/25 11:57:17;;;;;;;3.83;3.53;;;30.50;99.90;;;;;;5095501;28;20647;-68
2023/06/25 11:59:43;;;;;;;7.10;4.07;;;30.30;99.90;;;;;;5077926;28;20534;-70
2023/06/25 12:02:10;;;;;;;3.60;3.27;;;30.20;99.90;;;;;;5094300;28;20411;-70
2023/06/25 12:04:36;;;;;;;3.70;3.50;;;30.50;99.90;;;;;;5094552;28;20208;-69
2023/06/25 12:07:02;;;;;;;4.07;3.77;;;30.80;99.90;;;;;;5095918;28;20760;-70
2023/06/25 12:09:28;;;;;;;3.87;3.57;;;30.80;99.90;;;;;;5094868;28;20467;-71
2023/06/25 12:11:54;;;;;;;4.23;3.83;;;30.90;99.90;;;;;;5076426;28;20436;-68
2023/06/25 12:14:20;;;;;;;6.27;4.23;;;30.60;99.90;;;;;;5093952;28;20665;-69
2023/06/25 12:16:46;;;;;;;5.05;4.10;;;30.40;99.90;;;;;;5059955;28;20426;-67
2023/06/25 12:19:12;;;;;;;61.70;56.53;;;30.60;99.90;;;;;;5075132;28;20166;-67
2023/06/25 12:21:38;;;;;;;51.00;46.17;;;30.50;99.90;;;;;;5073655;28;20662;-68
2023/06/25 12:24:04;;;;;;;58.67;52.93;;;30.10;99.90;;;;;;5075394;28;20194;-68
2023/06/25 12:26:30;;;;;;;14.13;13.00;;;29.80;99.90;;;;;;5079380;28;20581;-68
2023/06/25 12:28:56;;;;;;;7.97;7.40;;;29.40;99.90;;;;;;5093772;28;20528;-68
2023/06/25 12:31:23;;;;;;;7.07;6.40;;;29.10;99.90;;;;;;5083000;28;20413;-68
2023/06/25 12:33:49;;;;;;;5.77;4.83;;;28.90;99.90;;;;;;5075001;28;20871;-67
2023/06/25 12:36:14;;;;;;;5.20;4.27;;;28.70;99.90;;;;;;5056721;28;20496;-68
2023/06/25 12:38:40;;;;;;;4.17;3.77;;;28.70;99.90;;;;;;5056597;28;20261;-67
2023/06/25 12:41:06;;;;;;;4.90;4.40;;;28.70;99.90;;;;;;5085157;28;20642;-68
2023/06/25 12:43:31;;;;;;;4.93;4.43;;;28.50;99.90;;;;;;5083261;28;20615;-68
2023/06/25 12:45:57;;;;;;;4.57;4.27;;;28.30;99.90;;;;;;5092848;28;20188;-68
2023/06/25 12:48:23;;;;;;;4.60;4.20;;;28.20;99.90;;;;;;5094803;28;20701;-68